createdAt,value
2018-09-22T00:00:53.269Z,1.20
2018-09-22T00:03:22.182Z,1.12
2018-09-22T00:05:51.072Z,1.25
2018-09-22T00:08:20.013Z,0.98
2018-09-22T00:10:48.887Z,1.52
2018-09-22T00:13:17.702Z,1.10
2018-09-22T00:15:46.497Z,1.50
2018-09-22T00:18:15.294Z,1.10
2018-09-22T00:20:44.227Z,1.10
2018-09-22T00:23:13.135Z,1.37
2018-09-22T00:25:42.064Z,0.90
2018-09-22T00:28:10.956Z,1.20
2018-09-22T00:30:39.796Z,1.00
2018-09-22T00:33:08.768Z,1.45
2018-09-22T00:35:37.560Z,1.47
2018-09-22T00:38:06.421Z,1.40
2018-09-22T00:40:35.265Z,1.37
2018-09-22T00:43:04.220Z,1.10
2018-09-22T00:45:33.099Z,1.42
2018-09-22T00:48:01.921Z,1.30
2018-09-22T00:50:30.692Z,1.20
2018-09-22T00:52:59.524Z,1.67
2018-09-22T00:55:28.399Z,1.17
2018-09-22T00:57:57.311Z,1.07
2018-09-22T01:01:55.486Z,1.65
2018-09-22T01:04:24.350Z,1.35
2018-09-22T01:06:53.231Z,1.27
2018-09-22T01:09:22.038Z,1.30
2018-09-22T01:11:50.843Z,1.15
2018-09-22T01:14:19.634Z,0.93
2018-09-22T01:16:48.455Z,1.30
2018-09-22T01:19:17.323Z,1.27
2018-09-22T01:21:46.103Z,1.07
2018-09-22T01:24:14.884Z,1.00
2018-09-22T01:26:43.690Z,1.05
2018-09-22T01:29:16.067Z,1.00
2018-09-22T01:31:45.536Z,0.90
2018-09-22T01:34:14.460Z,1.10
2018-09-22T01:36:43.703Z,1.12
2018-09-22T01:39:12.797Z,1.15
2018-09-22T01:41:42.320Z,1.50
2018-09-22T01:44:11.354Z,1.07
2018-09-22T01:46:40.170Z,1.10
2018-09-22T01:49:09.009Z,1.20
2018-09-22T01:51:37.842Z,1.02
2018-09-22T01:54:06.720Z,1.10
2018-09-22T01:56:35.671Z,1.10
2018-09-22T01:59:04.695Z,0.85
2018-09-22T02:01:33.543Z,1.00
2018-09-22T02:04:02.354Z,1.07
2018-09-22T02:06:31.174Z,1.02
2018-09-22T02:08:59.961Z,1.00
2018-09-22T02:11:28.822Z,1.20
2018-09-22T02:13:57.666Z,1.20
2018-09-22T02:16:26.505Z,1.30
2018-09-22T02:18:55.397Z,1.22
2018-09-22T02:21:24.266Z,1.30
2018-09-22T02:23:53.164Z,0.85
2018-09-22T02:26:22.087Z,1.02
2018-09-22T02:28:50.938Z,1.40
2018-09-22T02:31:19.795Z,1.20
2018-09-22T02:33:48.622Z,1.10
2018-09-22T02:36:17.464Z,1.00
2018-09-22T02:38:46.302Z,1.35
2018-09-22T02:41:15.166Z,1.10
2018-09-22T02:43:43.982Z,1.50
2018-09-22T02:46:12.834Z,0.80
2018-09-22T02:48:41.665Z,0.90
2018-09-22T02:51:10.525Z,0.82
2018-09-22T02:53:39.316Z,1.20
2018-09-22T02:56:08.158Z,0.90
2018-09-22T02:58:36.988Z,1.20
2018-09-22T03:01:05.886Z,1.05
2018-09-22T03:03:34.783Z,0.70
2018-09-22T03:06:03.645Z,1.17
2018-09-22T03:08:32.443Z,1.02
2018-09-22T03:11:01.351Z,0.88
2018-09-22T03:13:30.234Z,0.82
2018-09-22T03:15:59.042Z,0.88
2018-09-22T03:18:27.907Z,1.22
2018-09-22T03:20:56.761Z,0.85
2018-09-22T03:23:25.623Z,0.82
2018-09-22T03:25:54.390Z,0.90
2018-09-22T03:28:23.259Z,0.85
2018-09-22T03:30:52.104Z,1.17
2018-09-22T03:33:20.936Z,1.00
2018-09-22T03:35:49.714Z,1.10
2018-09-22T03:38:18.546Z,0.70
2018-09-22T03:40:47.342Z,1.20
2018-09-22T03:43:16.170Z,0.90
2018-09-22T03:45:44.961Z,0.93
2018-09-22T03:48:13.737Z,1.20
2018-09-22T03:50:42.550Z,0.90
2018-09-22T03:53:11.415Z,0.98
2018-09-22T03:55:40.215Z,1.10
2018-09-22T03:58:09.013Z,1.00
2018-09-22T04:00:37.992Z,0.90
2018-09-22T04:03:06.489Z,0.90
2018-09-22T04:05:35.278Z,1.00
2018-09-22T04:08:04.036Z,1.30
2018-09-22T04:10:32.822Z,1.10
2018-09-22T04:13:01.671Z,0.80
2018-09-22T04:15:30.613Z,1.00
2018-09-22T04:17:59.505Z,1.22
2018-09-22T04:20:28.267Z,0.80
2018-09-22T04:22:57.166Z,0.75
2018-09-22T04:25:25.991Z,0.72
2018-09-22T04:27:54.767Z,1.00
2018-09-22T04:30:23.648Z,0.93
2018-09-22T04:32:52.470Z,0.70
2018-09-22T04:35:21.304Z,1.00
2018-09-22T04:37:50.143Z,1.05
2018-09-22T04:40:18.967Z,0.93
2018-09-22T04:42:47.732Z,0.70
2018-09-22T04:45:16.588Z,1.12
2018-09-22T04:47:45.378Z,0.90
2018-09-22T04:50:14.149Z,0.88
2018-09-22T04:52:42.979Z,0.82
2018-09-22T04:55:11.873Z,0.70
2018-09-22T04:57:40.678Z,0.78
2018-09-22T05:00:09.622Z,1.05
2018-09-22T05:02:38.444Z,0.80
2018-09-22T05:05:07.454Z,1.10
2018-09-22T05:07:36.229Z,0.72
2018-09-22T05:10:05.237Z,1.02
2018-09-22T05:12:34.026Z,1.05
2018-09-22T05:15:03.012Z,0.90
2018-09-22T05:17:31.864Z,1.07
2018-09-22T05:20:00.699Z,0.90
2018-09-22T05:22:29.542Z,0.72
2018-09-22T05:24:58.341Z,0.80
2018-09-22T05:27:27.191Z,0.60
2018-09-22T05:29:56.029Z,1.17
2018-09-22T05:32:24.886Z,0.85
2018-09-22T05:34:54.642Z,1.25
2018-09-22T05:37:23.432Z,0.82
2018-09-22T05:39:52.261Z,0.90
2018-09-22T05:42:21.152Z,0.75
2018-09-22T05:44:49.958Z,0.70
2018-09-22T05:47:18.753Z,1.05
2018-09-22T05:49:47.663Z,1.00
2018-09-22T05:52:16.512Z,0.68
2018-09-22T05:54:45.293Z,0.88
2018-09-22T05:57:14.140Z,0.75
2018-09-22T05:59:42.980Z,0.82
2018-09-22T06:02:11.783Z,0.80
2018-09-22T06:04:40.575Z,0.82
2018-09-22T06:07:09.431Z,0.85
2018-09-22T06:09:38.301Z,1.12
2018-09-22T06:12:07.193Z,1.05
2018-09-22T06:14:36.027Z,0.90
2018-09-22T06:17:04.943Z,0.90
2018-09-22T06:19:33.810Z,0.90
2018-09-22T06:22:02.638Z,1.00
2018-09-22T06:24:31.469Z,0.90
2018-09-22T06:27:00.276Z,0.75
2018-09-22T06:29:29.084Z,1.20
2018-09-22T06:31:57.970Z,1.07
2018-09-22T06:34:26.778Z,0.72
2018-09-22T06:36:55.600Z,0.72
2018-09-22T06:39:24.508Z,0.72
2018-09-22T06:41:53.507Z,1.02
2018-09-22T06:44:22.382Z,0.80
2018-09-22T06:46:51.872Z,0.82
2018-09-22T06:49:20.635Z,0.98
2018-09-22T06:51:49.487Z,0.82
2018-09-22T06:54:18.319Z,1.10
2018-09-22T06:56:47.185Z,1.22
2018-09-22T06:59:16.065Z,1.10
2018-09-22T07:01:44.839Z,1.10
2018-09-22T07:04:13.695Z,0.95
2018-09-22T07:06:42.658Z,1.32
2018-09-22T07:09:11.512Z,1.20
2018-09-22T07:11:40.347Z,0.93
2018-09-22T07:14:09.326Z,0.98
2018-09-22T07:16:38.103Z,0.95
2018-09-22T07:19:07.323Z,0.90
2018-09-22T07:21:41.231Z,0.93
2018-09-22T07:24:10.128Z,1.10
2018-09-22T07:26:38.978Z,0.85
2018-09-22T07:29:07.874Z,0.78
2018-09-22T07:31:36.718Z,1.07
2018-09-22T07:34:06.052Z,0.98
2018-09-22T07:36:34.936Z,0.75
2018-09-22T07:39:04.026Z,0.78
2018-09-22T07:41:32.882Z,1.10
2018-09-22T07:44:01.811Z,0.90
2018-09-22T07:46:30.644Z,0.80
2018-09-22T07:48:59.511Z,1.00
2018-09-22T07:51:28.891Z,1.00
2018-09-22T07:53:57.747Z,0.80
2018-09-22T07:56:26.544Z,1.05
2018-09-22T07:58:55.448Z,1.07
2018-09-22T08:01:24.799Z,1.00
2018-09-22T08:03:53.709Z,1.67
2018-09-22T08:06:23.871Z,0.90
2018-09-22T08:08:54.008Z,0.95
2018-09-22T08:11:23.006Z,1.30
2018-09-22T08:13:51.900Z,0.70
2018-09-22T08:16:20.780Z,0.90
2018-09-22T08:18:49.698Z,1.00
2018-09-22T08:21:18.654Z,1.22
2018-09-22T08:23:47.448Z,1.00
2018-09-22T08:26:16.260Z,1.22
2018-09-22T08:28:45.193Z,1.15
2018-09-22T08:31:14.111Z,1.07
2018-09-22T08:33:42.995Z,0.90
2018-09-22T08:36:11.903Z,1.10
2018-09-22T08:38:40.754Z,1.12
2018-09-22T08:41:09.679Z,1.02
2018-09-22T08:43:38.644Z,0.78
2018-09-22T08:46:07.720Z,1.00
2018-09-22T08:48:36.968Z,1.10
2018-09-22T08:51:05.946Z,1.10
2018-09-22T08:53:35.008Z,1.07
2018-09-22T08:56:03.891Z,1.12
2018-09-22T08:58:32.861Z,1.10
2018-09-22T09:01:01.670Z,1.07
2018-09-22T09:03:30.541Z,1.02
2018-09-22T09:05:59.510Z,0.95
2018-09-22T09:08:28.440Z,1.35
2018-09-22T09:10:57.668Z,1.70
2018-09-22T09:13:26.610Z,1.45
2018-09-22T09:15:55.502Z,1.37
2018-09-22T09:18:24.501Z,1.75
2018-09-22T09:20:53.432Z,1.95
2018-09-22T09:23:22.326Z,2.10
2018-09-22T09:25:51.187Z,1.55
2018-09-22T09:28:20.084Z,1.60
2018-09-22T09:30:49.277Z,1.20
2018-09-22T09:33:18.156Z,1.35
2018-09-22T09:35:47.050Z,1.75
2018-09-22T09:38:15.987Z,1.75
2018-09-22T09:40:44.968Z,1.35
2018-09-22T09:43:13.957Z,1.60
2018-09-22T09:45:42.955Z,1.20
2018-09-22T09:48:11.891Z,1.60
2018-09-22T09:50:40.839Z,1.37
2018-09-22T09:53:09.804Z,1.47
2018-09-22T09:55:38.751Z,1.50
2018-09-22T09:58:07.794Z,1.20
2018-09-22T10:00:41.795Z,1.40
2018-09-22T10:03:10.803Z,1.30
2018-09-22T10:05:39.782Z,1.20
2018-09-22T10:08:08.740Z,1.30
2018-09-22T10:10:37.738Z,1.35
2018-09-22T10:13:06.760Z,1.22
2018-09-22T10:15:35.782Z,1.42
2018-09-22T10:18:04.947Z,1.30
2018-09-22T10:20:33.848Z,1.30
2018-09-22T10:23:02.679Z,1.15
2018-09-22T10:25:31.589Z,1.32
2018-09-22T10:28:00.523Z,1.07
2018-09-22T10:30:29.492Z,1.10
2018-09-22T10:32:58.443Z,1.12
2018-09-22T10:35:27.393Z,1.10
2018-09-22T10:37:56.253Z,1.40
2018-09-22T10:40:25.141Z,1.05
2018-09-22T10:42:54.021Z,1.22
2018-09-22T10:45:23.026Z,1.17
2018-09-22T10:47:52.365Z,1.20
2018-09-22T10:50:21.406Z,1.45
2018-09-22T10:52:50.333Z,1.25
2018-09-22T10:55:19.289Z,1.10
2018-09-22T10:57:48.209Z,1.40
2018-09-22T11:00:17.109Z,1.45
2018-09-22T11:02:46.080Z,1.37
2018-09-22T11:05:15.091Z,1.60
2018-09-22T11:07:43.990Z,1.20
2018-09-22T11:10:12.907Z,1.57
2018-09-22T11:12:41.801Z,1.40
2018-09-22T11:15:10.794Z,1.17
2018-09-22T11:17:39.703Z,1.12
2018-09-22T11:20:08.650Z,1.42
2018-09-22T11:22:37.567Z,1.30
2018-09-22T11:25:06.598Z,2.00
2018-09-22T11:27:35.546Z,1.67
2018-09-22T11:30:04.719Z,2.05
2018-09-22T11:32:33.651Z,2.10
2018-09-22T11:35:03.976Z,1.90
2018-09-22T11:37:32.959Z,1.60
2018-09-22T11:40:02.019Z,1.75
2018-09-22T11:42:31.117Z,1.90
2018-09-22T11:45:00.073Z,1.70
2018-09-22T11:47:29.112Z,1.75
2018-09-22T11:49:57.999Z,2.08
2018-09-22T11:52:27.017Z,2.00
2018-09-22T11:54:56.310Z,2.80
2018-09-22T11:57:25.253Z,2.95
2018-09-22T11:59:54.239Z,3.67
2018-09-22T12:02:23.158Z,3.50
2018-09-22T12:04:52.115Z,3.90
2018-09-22T12:07:21.408Z,3.45
2018-09-22T12:09:50.481Z,3.85
2018-09-22T12:12:19.661Z,3.00
2018-09-22T12:14:48.569Z,3.37
2018-09-22T12:17:17.520Z,3.00
2018-09-22T12:19:47.139Z,3.02
2018-09-22T12:22:16.272Z,3.05
2018-09-22T12:24:45.321Z,2.62
2018-09-22T12:27:14.394Z,2.40
2018-09-22T12:29:43.288Z,2.65
2018-09-22T12:32:12.233Z,2.52
2018-09-22T12:34:41.134Z,2.75
2018-09-22T12:37:10.125Z,3.15
2018-09-22T12:39:39.133Z,3.47
2018-09-22T12:42:08.075Z,2.80
2018-09-22T12:44:37.074Z,2.80
2018-09-22T12:47:06.073Z,2.62
2018-09-22T12:49:35.291Z,2.70
2018-09-22T12:52:04.174Z,2.98
2018-09-22T12:54:33.132Z,2.50
2018-09-22T12:57:02.115Z,2.47
2018-09-22T12:59:31.083Z,2.17
2018-09-22T13:02:00.143Z,2.20
2018-09-22T13:04:29.052Z,2.65
2018-09-22T13:06:57.978Z,2.22
2018-09-22T13:09:27.074Z,2.80
2018-09-22T13:11:55.939Z,2.40
2018-09-22T13:14:24.812Z,2.30
2018-09-22T13:16:53.671Z,2.33
2018-09-22T13:19:22.550Z,2.27
2018-09-22T13:21:51.448Z,2.22
2018-09-22T13:24:20.263Z,2.77
2018-09-22T13:26:49.238Z,2.25
2018-09-22T13:29:18.083Z,2.12
2018-09-22T13:31:46.918Z,2.15
2018-09-22T13:34:15.787Z,2.25
2018-09-22T13:36:44.641Z,2.02
2018-09-22T13:39:14.113Z,1.90
2018-09-22T13:41:43.121Z,1.57
2018-09-22T13:44:12.003Z,2.00
2018-09-22T13:46:41.183Z,1.57
2018-09-22T13:49:10.123Z,1.70
2018-09-22T13:51:39.063Z,1.80
2018-09-22T13:54:08.116Z,1.45
2018-09-22T13:56:37.020Z,1.60
2018-09-22T13:59:06.179Z,1.55
2018-09-22T14:01:35.166Z,1.75
2018-09-22T14:04:04.087Z,2.05
2018-09-22T14:06:33.223Z,1.60
2018-09-22T14:09:02.295Z,1.45
2018-09-22T14:11:31.256Z,1.70
2018-09-22T14:14:00.817Z,1.70
2018-09-22T14:16:30.562Z,1.80
2018-09-22T14:18:59.395Z,1.17
2018-09-22T14:21:28.495Z,1.52
2018-09-22T14:23:57.370Z,1.20
2018-09-22T14:26:26.349Z,1.50
2018-09-22T14:28:55.260Z,1.20
2018-09-22T14:31:24.190Z,1.30
2018-09-22T14:33:53.116Z,1.42
2018-09-22T14:36:22.032Z,1.10
2018-09-22T14:38:51.087Z,1.27
2018-09-22T14:41:20.032Z,1.47
2018-09-22T14:43:48.909Z,1.00
2018-09-22T14:46:17.738Z,1.07
2018-09-22T14:48:46.658Z,1.27
2018-09-22T14:51:15.527Z,1.05
2018-09-22T14:53:44.525Z,1.10
2018-09-22T14:56:13.619Z,1.30
2018-09-22T14:58:42.614Z,1.05
2018-09-22T15:01:11.786Z,0.98
2018-09-22T15:03:40.654Z,1.20
2018-09-22T15:06:09.622Z,1.10
2018-09-22T15:08:38.610Z,0.82
2018-09-22T15:11:07.567Z,0.93
2018-09-22T15:13:36.571Z,0.90
2018-09-22T15:16:05.448Z,0.78
2018-09-22T15:18:34.406Z,0.95
2018-09-22T15:21:03.358Z,0.90
2018-09-22T15:23:32.307Z,1.22
2018-09-22T15:26:01.546Z,0.70
2018-09-22T15:28:30.469Z,1.25
2018-09-22T15:31:00.067Z,1.17
2018-09-22T15:33:29.075Z,0.80
2018-09-22T15:35:58.314Z,1.12
2018-09-22T15:38:27.425Z,0.93
2018-09-22T15:40:56.671Z,0.85
2018-09-22T15:43:26.177Z,1.20
2018-09-22T15:45:55.106Z,0.70
2018-09-22T15:48:24.185Z,0.90
2018-09-22T15:50:53.547Z,0.80
2018-09-22T15:53:22.463Z,0.93
2018-09-22T15:55:51.349Z,1.25
2018-09-22T15:58:20.516Z,2.20
2018-09-22T16:00:49.848Z,5.42
2018-09-22T16:03:18.737Z,4.87
2018-09-22T16:05:47.735Z,5.25
2018-09-22T16:08:16.670Z,5.28
2018-09-22T16:10:45.566Z,6.12
2018-09-22T16:13:14.663Z,5.83
2018-09-22T16:15:43.624Z,5.12
2018-09-22T16:18:12.531Z,4.30
2018-09-22T16:20:41.471Z,4.75
2018-09-22T16:23:10.449Z,5.70
2018-09-22T16:25:39.289Z,4.35
2018-09-22T16:28:08.292Z,4.22
2018-09-22T16:30:37.291Z,5.10
2018-09-22T16:33:06.251Z,4.00
2018-09-22T16:35:35.142Z,3.67
2018-09-22T16:38:04.198Z,3.17
2018-09-22T16:40:33.181Z,3.47
2018-09-22T16:43:02.116Z,3.30
2018-09-22T16:45:30.937Z,3.80
2018-09-22T16:47:59.816Z,3.02
2018-09-22T16:50:28.841Z,3.05
2018-09-22T16:52:57.630Z,2.90
2018-09-22T16:55:26.623Z,3.12
2018-09-22T16:57:55.486Z,2.80
2018-09-22T17:00:24.408Z,2.58
2018-09-22T17:02:53.275Z,2.87
2018-09-22T17:05:22.175Z,2.70
2018-09-22T17:07:51.130Z,2.77
2018-09-22T17:10:20.028Z,2.50
2018-09-22T17:12:48.973Z,2.72
2018-09-22T17:15:17.896Z,2.50
2018-09-22T17:17:46.916Z,3.00
2018-09-22T17:20:15.775Z,2.27
2018-09-22T17:22:44.621Z,2.40
2018-09-22T17:25:13.673Z,2.20
2018-09-22T17:27:42.560Z,2.15
2018-09-22T17:30:11.563Z,2.02
2018-09-22T17:32:40.632Z,1.87
2018-09-22T17:35:09.568Z,1.82
2018-09-22T17:37:38.607Z,2.20
2018-09-22T17:40:07.694Z,1.30
2018-09-22T17:42:36.725Z,1.77
2018-09-22T17:45:06.687Z,1.90
2018-09-22T17:47:35.669Z,1.80
2018-09-22T17:50:04.992Z,2.05
2018-09-22T17:52:33.880Z,1.90
2018-09-22T17:55:03.186Z,1.80
2018-09-22T17:57:32.244Z,1.92
2018-09-22T18:00:01.089Z,1.77
2018-09-22T18:02:30.055Z,1.40
2018-09-22T18:04:58.904Z,1.52
2018-09-22T18:07:27.837Z,1.60
2018-09-22T18:09:56.831Z,1.60
2018-09-22T18:12:25.823Z,1.65
2018-09-22T18:14:54.911Z,1.60
2018-09-22T18:17:23.909Z,1.60
2018-09-22T18:19:52.938Z,1.40
2018-09-22T18:22:21.805Z,1.65
2018-09-22T18:24:50.803Z,1.80
2018-09-22T18:27:19.640Z,1.50
2018-09-22T18:29:48.566Z,1.20
2018-09-22T18:32:17.604Z,1.45
2018-09-22T18:34:46.592Z,1.12
2018-09-22T18:37:15.591Z,1.35
2018-09-22T18:39:44.528Z,1.12
2018-09-22T18:42:13.470Z,1.10
2018-09-22T18:44:42.424Z,1.12
2018-09-22T18:47:11.443Z,1.20
2018-09-22T18:49:40.712Z,1.10
2018-09-22T18:52:09.664Z,1.10
2018-09-22T18:54:38.651Z,1.12
2018-09-22T18:57:07.643Z,1.15
2018-09-22T18:59:36.621Z,1.45
2018-09-22T19:02:06.816Z,1.00
2018-09-22T19:04:35.975Z,1.10
2018-09-22T19:07:05.497Z,0.95
2018-09-22T19:09:34.612Z,1.20
2018-09-22T19:12:03.841Z,1.15
2018-09-22T19:15:08.442Z,1.55
2018-09-22T19:17:42.659Z,0.90
2018-09-22T19:20:16.722Z,1.00
2018-09-22T19:22:54.291Z,1.32
2018-09-22T19:25:25.809Z,1.15
2018-09-22T19:28:01.982Z,1.20
2018-09-22T19:30:43.312Z,0.78
2018-09-22T19:33:47.968Z,1.00
2018-09-22T19:36:22.010Z,0.95
2018-09-22T19:38:59.880Z,1.02
2018-09-22T19:41:34.787Z,1.15
2018-09-22T19:45:14.891Z,0.90
2018-09-22T19:47:48.399Z,1.00
2018-09-22T19:50:21.714Z,1.20
2018-09-22T19:52:52.195Z,0.80
2018-09-22T19:55:21.651Z,0.95
2018-09-22T19:57:50.648Z,1.00
2018-09-22T20:00:20.351Z,1.20
2018-09-22T20:02:49.269Z,1.00
2018-09-22T20:05:18.208Z,1.62
2018-09-22T20:07:46.010Z,1.27
2018-09-22T20:10:14.906Z,1.20
2018-09-22T20:12:43.814Z,0.80
2018-09-22T20:15:11.583Z,1.10
2018-09-22T20:17:40.889Z,1.22
2018-09-22T20:20:09.759Z,0.88
2018-09-22T20:22:37.534Z,0.85
2018-09-22T20:25:06.797Z,1.20
2018-09-22T20:27:35.724Z,0.80
2018-09-22T20:30:04.893Z,1.07
2018-09-22T20:32:33.898Z,1.12
2018-09-22T20:35:02.807Z,0.80
2018-09-22T20:37:31.745Z,1.00
2018-09-22T20:40:00.634Z,1.05
2018-09-22T20:42:29.509Z,1.00
2018-09-22T20:44:58.344Z,0.80
2018-09-22T20:47:27.281Z,0.90
2018-09-22T20:49:56.124Z,1.00
2018-09-22T20:52:25.029Z,0.95
2018-09-22T20:54:53.950Z,0.68
2018-09-22T20:57:22.901Z,0.95
2018-09-22T20:59:51.855Z,0.80
2018-09-22T21:02:20.850Z,1.30
2018-09-22T21:04:49.862Z,0.80
2018-09-22T21:07:18.797Z,0.90
2018-09-22T21:09:47.771Z,0.95
2018-09-22T21:12:16.679Z,0.80
2018-09-22T21:14:45.534Z,0.70
2018-09-22T21:17:14.557Z,0.88
2018-09-22T21:19:43.594Z,1.07
2018-09-22T21:22:12.532Z,0.72
2018-09-22T21:24:41.421Z,0.90
2018-09-22T21:27:10.673Z,0.98
2018-09-22T21:29:39.605Z,1.07
2018-09-22T21:32:08.561Z,1.00
2018-09-22T21:34:37.404Z,0.90
2018-09-22T21:37:07.336Z,0.95
2018-09-22T21:39:36.406Z,0.90
2018-09-22T21:42:05.467Z,0.85
2018-09-22T21:44:34.338Z,0.90
2018-09-22T21:47:03.233Z,0.80
2018-09-22T21:49:32.193Z,1.10
2018-09-22T21:52:01.251Z,1.27
2018-09-22T21:54:30.192Z,0.80
2018-09-22T21:56:59.136Z,0.98
2018-09-22T21:59:28.023Z,1.07
2018-09-22T22:01:55.984Z,1.30
2018-09-22T22:04:24.878Z,1.25
2018-09-22T22:06:53.796Z,1.30
2018-09-22T22:09:22.644Z,1.12
2018-09-22T22:11:51.498Z,1.00
2018-09-22T22:14:20.328Z,1.07
2018-09-22T22:16:49.217Z,1.00
2018-09-22T22:19:18.170Z,0.90
2018-09-22T22:21:46.980Z,1.07
2018-09-22T22:24:15.966Z,1.00
2018-09-22T22:26:44.906Z,1.25
2018-09-22T22:29:13.801Z,0.90
2018-09-22T22:31:42.634Z,1.07
2018-09-22T22:34:11.626Z,0.85
2018-09-22T22:36:40.499Z,1.10
2018-09-22T22:39:09.348Z,1.15
2018-09-22T22:41:38.210Z,1.05
2018-09-22T22:44:07.103Z,0.90
2018-09-22T22:46:36.079Z,1.02
2018-09-22T22:49:05.026Z,0.98
2018-09-22T22:51:33.829Z,1.07
2018-09-22T22:54:03.270Z,1.30
2018-09-22T22:56:32.251Z,1.30
2018-09-22T22:59:01.052Z,0.85
2018-09-22T23:01:29.992Z,1.50
2018-09-22T23:03:59.017Z,1.50
2018-09-22T23:06:27.977Z,1.02
2018-09-22T23:08:56.876Z,1.25
2018-09-22T23:11:25.717Z,1.35
2018-09-22T23:13:54.594Z,1.00
2018-09-22T23:16:23.466Z,1.35
2018-09-22T23:18:52.275Z,0.90
2018-09-22T23:21:21.049Z,1.45
2018-09-22T23:23:49.852Z,1.50
2018-09-22T23:26:18.728Z,1.02
2018-09-22T23:28:47.785Z,1.50
2018-09-22T23:31:16.698Z,1.42
2018-09-22T23:33:45.575Z,1.00
2018-09-22T23:36:14.531Z,1.20
2018-09-22T23:38:43.445Z,1.17
2018-09-22T23:41:12.341Z,1.12
2018-09-22T23:43:41.136Z,1.60
2018-09-22T23:46:10.010Z,1.27
2018-09-22T23:48:38.843Z,1.40
2018-09-22T23:51:07.777Z,1.15
2018-09-22T23:53:36.598Z,1.45
2018-09-22T23:56:05.722Z,1.50
2018-09-22T23:58:34.578Z,1.37
